Weather History for LFMP - May, 2014

Change the Weather History Date:

Thursday, May 15, 2014

  Actual Average Record
Temperature  
Mean Temperature 65 °F -  
Max Temperature 73 °F 74 °F 78 °F (2008)
Min Temperature 57 °F 58 °F 50 °F (2003)
Growing Degree Days 15 (Base 50)    
Moisture  
Dew Point 35 °F    
Average Humidity 31    
Maximum Humidity 51    
Minimum Humidity 12    
Precipitation  
Precipitation 0.00 in 0.05 in - ()
Sea Level Pressure  
Sea Level Pressure 30.26 in    
Wind  
Wind Speed 17 mph ()    
Max Wind Speed 26 mph    
Max Gust Speed 38 mph    
Visibility 6.2 miles    
Events      
Averages and records for this station are not official NWS values.
T = Trace of Precipitation, MM = Missing Value Source: Averaged Metar Reports

Daily Weather History Graph

Daily Weather History Graph

Search for Another Location

Airport or City:

Trip Planner

Search our weather history database for the weather conditions in past years. The results will help you decide how hot, cold, wet, or windy it might be!

Date:

Astronomy

May. 15, 2014 Rise Set
Actual Time 6:26 AM CEST 9:04 PM CEST
Civil Twilight 5:53 AM CEST 9:36 PM CEST
Nautical Twilight 5:13 AM CEST 10:17 PM CEST
Astronomical Twilight 4:27 AM CEST 11:03 PM CEST
Moon 9:56 PM CEST (5/15) 7:00 AM CEST (5/15)
Length of Visible Light 15h 42m
Length of Day
14h 37m
Waxing Gibbous, 99% of the Moon is Illuminated
May 15
Waxing Gibbous
May 21
Last Quarter
May 28
New
Jun 5
First Quarter
Jun 13
Full

Hourly Weather History & Observations

Time (CEST) Temp. Dew Point Humidity Pressure Visibility Wind Dir Wind Speed Gust Speed Precip Events Conditions
12:00 AM 62 °F 38 °F 29% 30.36 in 37 mi NW 19.6 mph - -   Clear
12:00 AM 62.6 °F 37.4 °F 39% 30.36 in 6.2 mi NW 19.6 mph - N/A   Unknown
12:30 AM 60.8 °F 37.4 °F 42% 30.36 in 6.2 mi NW 18.4 mph - N/A   Unknown
1:00 AM 61 °F 38 °F 31% 30.37 in 37 mi NW 17.3 mph - -   Clear
1:00 AM 60.8 °F 37.4 °F 42% 30.36 in 6.2 mi NW 17.3 mph - N/A   Unknown
1:30 AM 60.8 °F 37.4 °F 42% 30.36 in 6.2 mi NW 16.1 mph - N/A   Unknown
2:00 AM 60 °F 39 °F 34% 30.36 in 37 mi NW 12.7 mph - -   Clear
2:00 AM 60.8 °F 39.2 °F 45% 30.36 in 6.2 mi NW 12.7 mph - N/A   Unknown
2:30 AM 59.0 °F 39.2 °F 48% 30.33 in 6.2 mi NW 12.7 mph - N/A   Unknown
3:00 AM 59 °F 39 °F 36% 30.34 in 37 mi NW 16.1 mph - -   Clear
3:00 AM 59.0 °F 39.2 °F 48% 30.33 in 6.2 mi NW 16.1 mph - N/A   Unknown
3:30 AM 59.0 °F 39.2 °F 48% 30.33 in 6.2 mi NW 15.0 mph - N/A   Unknown
4:00 AM 58 °F 39 °F 38% 30.34 in 37 mi NW 13.8 mph - -   Clear
4:00 AM 59.0 °F 39.2 °F 48% 30.33 in 6.2 mi NW 13.8 mph - N/A   Unknown
4:30 AM 57.2 °F 39.2 °F 51% 30.30 in 6.2 mi NW 16.1 mph - N/A   Unknown
5:00 AM 58 °F 38 °F 36% 30.32 in 37 mi WNW 18.4 mph - -   Clear
5:00 AM 57.2 °F 39.2 °F 51% 30.30 in 6.2 mi WNW 18.4 mph - N/A   Unknown
5:30 AM 59.0 °F 37.4 °F 45% 30.30 in 6.2 mi NW 13.8 mph - N/A   Unknown
6:00 AM 57 °F 37 °F 36% 30.32 in 37 mi NW 13.8 mph - -   Clear
6:00 AM 57.2 °F 37.4 °F 48% 30.30 in 6.2 mi NW 13.8 mph - N/A   Unknown
6:30 AM 57.2 °F 37.4 °F 48% 30.30 in 6.2 mi WNW 18.4 mph - N/A   Unknown
7:00 AM 58 °F 38 °F 35% 30.32 in 22 mi NW 16.1 mph - -  
7:00 AM 57.2 °F 37.4 °F 48% 30.30 in - NW 17.3 mph - N/A   Clear
7:30 AM 59.0 °F 37.4 °F 45% 30.30 in - NNW 15.0 mph - N/A   Clear
8:00 AM 59 °F 37 °F 32% 30.32 in 22 mi NW 17.3 mph - -  
8:00 AM 59.0 °F 37.4 °F 45% 30.30 in - NW 17.3 mph - N/A   Clear
8:30 AM 60.8 °F 37.4 °F 42% 30.30 in - NW 16.1 mph - N/A   Clear
9:00 AM 62 °F 37 °F 27% 30.32 in 22 mi NW 17.3 mph - -  
9:00 AM 60.8 °F 35.6 °F 39% 30.30 in - NW 17.3 mph - N/A   Clear
9:30 AM 62.6 °F 35.6 °F 37% 30.30 in - NNW 18.4 mph - N/A   Clear
10:00 AM 64 °F 37 °F 25% 30.30 in 22 mi NW 19.6 mph - -  
10:00 AM 64.4 °F 37.4 °F 37% 30.30 in - NW 19.6 mph - N/A   Clear
10:30 AM 66.2 °F 35.6 °F 32% 30.27 in - NNW 17.3 mph - N/A   Clear
11:00 AM 66 °F 35 °F 20% 30.27 in 22 mi NW 23.0 mph - -  
11:00 AM 66.2 °F 33.8 °F 30% 30.24 in - NW 20.7 mph 38.0 mph N/A   Clear
11:30 AM 66.2 °F 32.0 °F 28% 30.24 in - NW 21.9 mph 35.7 mph N/A   Clear
12:00 PM 68 °F 32 °F 16% 30.26 in 22 mi NW 21.9 mph - -  
12:00 PM 68.0 °F 32.0 °F 26% 30.24 in - NW 21.9 mph 34.5 mph N/A   Clear
12:30 PM 69.8 °F 32.0 °F 25% 30.24 in - NW 26.5 mph - N/A   Clear
1:00 PM 70 °F 33 °F 15% 30.24 in 22 mi NW 19.6 mph - -  
1:00 PM 69.8 °F 32.0 °F 25% 30.24 in - NW 20.7 mph - N/A   Clear
1:30 PM 69.8 °F 32.0 °F 25% 30.21 in - NNW 23.0 mph - N/A   Clear
2:00 PM 71 °F 31 °F 13% 30.22 in 22 mi NW 23.0 mph - -  
2:00 PM 71.6 °F 32.0 °F 23% 30.21 in - NW 24.2 mph 38.0 mph N/A   Clear
2:30 PM 71.6 °F 32.0 °F 23% 30.21 in - NNW 21.9 mph 34.5 mph N/A   Clear
3:00 PM 72 °F 31 °F 12% 30.20 in 22 mi NNW 21.9 mph - -  
3:00 PM 71.6 °F 32.0 °F 23% 30.18 in - NNW 20.7 mph 34.5 mph N/A   Clear
3:30 PM 71.6 °F 32.0 °F 23% 30.18 in - NNW 23.0 mph - N/A   Clear
4:00 PM 72 °F 32 °F 13% 30.19 in 22 mi NNW 19.6 mph - -  
4:00 PM 73.4 °F 32.0 °F 22% 30.18 in - NNW 19.6 mph - N/A   Clear
4:30 PM 71.6 °F 32.0 °F 23% 30.18 in - NNW 20.7 mph 33.4 mph N/A   Clear
5:00 PM 72 °F 32 °F 13% 30.19 in 22 mi NW 19.6 mph - -  
5:00 PM 71.6 °F 32.0 °F 23% 30.18 in - NW 23.0 mph 34.5 mph N/A   Clear
5:30 PM 71.6 °F 33.8 °F 25% 30.18 in - NW 19.6 mph 33.4 mph N/A   Clear
6:00 PM 71 °F 33 °F 14% 30.18 in 22 mi NW 21.9 mph - -  
6:00 PM 71.6 °F 32.0 °F 23% 30.18 in - NW 21.9 mph - N/A   Clear
6:30 PM 71.6 °F 33.8 °F 25% 30.18 in - NW 20.7 mph 35.7 mph N/A   Clear
7:00 PM 71 °F 34 °F 16% 30.18 in 22 mi NNW 19.6 mph - -  
7:00 PM 71.6 °F 33.8 °F 25% 30.15 in - NNW 19.6 mph - N/A   Clear
7:30 PM 69.8 °F 33.8 °F 27% 30.15 in 6.2 mi NW 19.6 mph 33.4 mph N/A   Unknown
8:00 PM 70 °F 34 °F 16% 30.18 in 37 mi NNW 18.4 mph - -   Clear
8:00 PM 69.8 °F 33.8 °F 27% 30.18 in 6.2 mi NNW 18.4 mph - N/A   Unknown
8:30 PM 68.0 °F 33.8 °F 28% 30.18 in 6.2 mi NW 17.3 mph 31.1 mph N/A   Unknown
9:00 PM 67 °F 35 °F 20% 30.19 in 37 mi NW 16.1 mph - -   Clear
9:00 PM 68.0 °F 35.6 °F 30% 30.18 in 6.2 mi NW 16.1 mph - N/A   Unknown
9:30 PM 66.2 °F 35.6 °F 32% 30.18 in 6.2 mi NW 15.0 mph - N/A   Unknown
10:00 PM 66 °F 35 °F 20% 30.20 in 37 mi NW 17.3 mph - -   Clear
10:00 PM 66.2 °F 35.6 °F 32% 30.18 in 6.2 mi NW 17.3 mph 28.8 mph N/A   Unknown
10:30 PM 66.2 °F 35.6 °F 32% 30.21 in 6.2 mi NNW 13.8 mph - N/A   Unknown
11:00 PM 64 °F 35 °F 22% 30.22 in 37 mi NNW 12.7 mph - -   Clear
11:00 PM 64.4 °F 33.8 °F 32% 30.21 in 6.2 mi NNW 12.7 mph - N/A   Unknown
11:30 PM 62.6 °F 33.8 °F 34% 30.21 in 6.2 mi North 12.7 mph - N/A   Unknown